Time;durP1;ratioP1;P1;durP2;ratioP2;P2;SDS_P1;SDS_P2;PMS_P1;PMS_P2;Temp;Humidity;BMP_temperature;BMP_pressure;BME280_temperature;BME280_humidity;BME280_pressure;Samples;Min_cycle;Max_cycle;Signal;HPM_P1;HPM_P2
2023/12/27 00:02:00;;;;;;;1.60;1.00;;;;;;;5.68;79.26;99415.55;102637;1264;110306;-70
2023/12/27 00:04:27;;;;;;;1.60;0.90;;;;;;;5.66;79.00;99414.40;102356;1267;138510;-71
2023/12/27 00:06:55;;;;;;;3.30;1.20;;;;;;;5.64;78.49;99422.05;102519;1264;97850;-71
2023/12/27 00:09:21;;;;;;;3.20;1.10;;;;;;;5.61;78.09;99423.86;102439;1264;107530;-70
2023/12/27 00:11:48;;;;;;;2.20;1.10;;;;;;;5.60;77.93;99434.92;102443;1267;138000;-71
2023/12/27 00:14:15;;;;;;;0.80;0.50;;;;;;;5.60;78.11;99441.66;102535;1262;111104;-72
2023/12/27 00:16:42;;;;;;;1.80;0.90;;;;;;;5.59;78.19;99445.13;102397;1266;138162;-72
2023/12/27 00:19:09;;;;;;;3.70;1.20;;;;;;;5.56;77.94;99450.54;102442;1267;98057;-72
2023/12/27 00:21:36;;;;;;;1.70;0.80;;;;;;;5.56;77.92;99455.19;102435;1267;138894;-72
2023/12/27 00:24:03;;;;;;;1.20;0.80;;;;;;;5.56;78.02;99459.33;102490;1269;97865;-72
2023/12/27 00:26:30;;;;;;;1.90;1.00;;;;;;;5.56;78.11;99464.66;102600;1263;110335;-71
2023/12/27 00:28:57;;;;;;;2.80;0.90;;;;;;;5.56;77.88;99468.64;102385;1269;139029;-71
2023/12/27 00:31:24;;;;;;;1.30;0.70;;;;;;;5.55;77.78;99476.06;102525;1270;98493;-73
2023/12/27 00:33:51;;;;;;;1.10;0.80;;;;;;;5.57;77.79;99478.29;102348;1267;138699;-72
2023/12/27 00:36:21;;;;;;;1.20;0.80;;;;;;;5.57;77.85;99476.91;102426;1265;97781;-72
2023/12/27 00:38:48;;;;;;;1.20;0.70;;;;;;;5.59;77.18;99486.02;102438;1267;110220;-73
2023/12/27 00:41:15;;;;;;;1.90;0.80;;;;;;;5.58;76.67;99498.96;102393;1267;138045;-72
2023/12/27 00:43:42;;;;;;;1.60;0.80;;;;;;;5.54;75.94;99504.38;102604;1264;99579;-71
2023/12/27 00:46:09;;;;;;;1.70;0.90;;;;;;;5.48;75.21;99500.38;102477;1264;137481;-72
2023/12/27 00:48:36;;;;;;;1.00;0.70;;;;;;;5.42;74.01;99492.42;102605;1263;97710;-72
2023/12/27 00:51:03;;;;;;;0.90;0.90;;;;;;;5.35;73.64;99514.11;102452;1267;111469;-73
2023/12/27 00:53:30;;;;;;;2.20;0.70;;;;;;;5.28;72.98;99508.77;102391;1267;137617;-73
2023/12/27 00:55:57;;;;;;;1.60;1.00;;;;;;;5.24;73.11;99527.15;102722;1264;97661;-72
2023/12/27 00:58:23;;;;;;;3.60;1.00;;;;;;;5.19;73.24;99530.85;102428;1264;137321;-71
2023/12/27 01:00:50;;;;;;;3.90;0.90;;;;;;;5.14;73.00;99527.17;102654;1266;97928;-72
2023/12/27 01:03:17;;;;;;;2.10;1.40;;;;;;;5.12;73.60;99539.45;102477;1264;110637;-72
2023/12/27 01:05:45;;;;;;;0.80;0.80;;;;;;;5.12;73.87;99546.35;102422;1264;138331;-72
2023/12/27 01:08:12;;;;;;;1.80;1.10;;;;;;;5.15;74.43;99550.23;102547;1264;97825;-70
2023/12/27 01:10:39;;;;;;;2.20;1.20;;;;;;;5.18;74.54;99552.23;102420;1262;137495;-72
2023/12/27 01:13:07;;;;;;;1.90;1.40;;;;;;;5.19;74.86;99559.30;102541;1265;97809;-70
2023/12/27 01:15:34;;;;;;;2.40;1.50;;;;;;;5.21;74.76;99566.50;102426;1269;137441;-71
2023/12/27 01:18:01;;;;;;;3.00;1.40;;;;;;;5.21;75.00;99574.77;102533;1266;107326;-71
2023/12/27 01:20:29;;;;;;;1.90;1.10;;;;;;;5.20;74.83;99573.05;101828;1265;1003110;-72
2023/12/27 01:22:55;;;;;;;2.80;1.60;;;;;;;5.20;75.02;99576.85;102442;1267;137966;-72
2023/12/27 01:25:22;;;;;;;2.40;1.30;;;;;;;5.20;75.02;99583.92;102517;1268;97994;-70
2023/12/27 01:27:49;;;;;;;2.40;1.30;;;;;;;5.21;75.00;99595.63;102404;1264;137966;-72
2023/12/27 01:30:18;;;;;;;2.70;1.40;;;;;;;5.18;74.41;99582.76;102494;1266;106875;-71
2023/12/27 01:32:46;;;;;;;2.60;1.30;;;;;;;5.19;74.11;99579.62;102540;1267;97827;-72
2023/12/27 01:35:12;;;;;;;1.80;0.90;;;;;;;5.20;73.72;99579.09;101690;1265;1002888;-71
2023/12/27 01:37:40;;;;;;;4.30;1.30;;;;;;;5.23;73.55;99595.08;102386;1262;97735;-72
2023/12/27 01:40:09;;;;;;;2.50;1.00;;;;;;;5.27;74.03;99581.88;102462;1266;137754;-72
2023/12/27 01:42:37;;;;;;;1.80;1.10;;;;;;;5.30;73.67;99592.31;102478;1269;106079;-72
2023/12/27 01:45:05;;;;;;;3.20;1.10;;;;;;;5.30;73.41;99597.50;102480;1265;97764;-72
2023/12/27 01:47:34;;;;;;;1.60;1.30;;;;;;;5.27;73.09;99598.78;102419;1263;137488;-71
2023/12/27 01:54:30;;;;;;;2.50;1.40;;;;;;;5.20;73.70;99611.16;102524;1266;111308;-72
2023/12/27 01:56:57;;;;;;;2.00;1.10;;;;;;;5.17;73.44;99615.34;102429;1270;106861;-71
2023/12/27 01:59:25;;;;;;;5.60;1.60;;;;;;;5.15;74.05;99624.52;102292;1264;139021;-71
2023/12/27 02:01:53;;;;;;;3.10;1.30;;;;;;;5.15;73.94;99624.34;102494;1264;106919;-72
2023/12/27 02:04:21;;;;;;;2.00;0.90;;;;;;;5.14;74.16;99635.56;102381;1264;139280;-71
2023/12/27 02:06:49;;;;;;;2.30;1.10;;;;;;;5.17;74.76;99632.58;102481;1267;110762;-71
2023/12/27 02:09:16;;;;;;;2.10;1.10;;;;;;;5.20;75.33;99627.52;102462;1267;108070;-71
2023/12/27 02:11:45;;;;;;;1.20;0.90;;;;;;;5.26;75.53;99627.91;102441;1267;138200;-71
2023/12/27 02:14:12;;;;;;;1.90;0.90;;;;;;;5.28;75.84;99630.46;102542;1267;108782;-71
2023/12/27 02:16:40;;;;;;;4.10;1.20;;;;;;;5.31;75.53;99626.61;102413;1264;137916;-71
2023/12/27 02:19:12;;;;;;;2.90;1.00;;;;;;;5.29;75.56;99635.10;102430;1267;110659;-72
2023/12/27 02:21:41;;;;;;;4.30;1.10;;;;;;;5.26;75.72;99636.54;102482;1263;106105;-71
2023/12/27 02:24:13;;;;;;;2.50;1.20;;;;;;;5.23;75.41;99637.82;102565;1264;97831;-72
2023/12/27 02:26:40;;;;;;;2.00;1.10;;;;;;;5.16;75.18;99637.41;102542;1267;106969;-72
2023/12/27 02:29:07;;;;;;;2.20;1.00;;;;;;;5.09;75.04;99650.31;102289;1262;137624;-71
2023/12/27 02:31:33;;;;;;;2.60;0.90;;;;;;;5.04;75.21;99655.41;102646;1264;111960;-71
2023/12/27 02:34:00;;;;;;;2.00;0.90;;;;;;;5.02;75.15;99666.13;102410;1267;138318;-71
2023/12/27 02:36:27;;;;;;;1.40;1.00;;;;;;;4.98;74.92;99661.20;102600;1269;98340;-71
2023/12/27 02:38:55;;;;;;;1.70;1.20;;;;;;;4.96;74.97;99667.27;102522;1268;106854;-71
2023/12/27 02:41:22;;;;;;;2.20;1.10;;;;;;;4.95;74.58;99669.02;102419;1264;137500;-70
2023/12/27 02:43:49;;;;;;;2.50;1.20;;;;;;;4.90;74.29;99668.42;102496;1267;110717;-74
2023/12/27 02:46:16;;;;;;;3.10;1.10;;;;;;;4.86;74.14;99670.75;102322;1270;137651;-73
2023/12/27 02:48:43;;;;;;;2.90;1.20;;;;;;;4.80;74.29;99677.36;102588;1264;97862;-72
2023/12/27 02:51:10;;;;;;;1.80;1.10;;;;;;;4.76;73.93;99682.98;102514;1267;107339;-72
2023/12/27 02:53:37;;;;;;;3.30;1.20;;;;;;;4.70;73.80;99687.05;102436;1268;138079;-70
2023/12/27 02:56:04;;;;;;;3.00;1.20;;;;;;;4.64;73.58;99686.09;102634;1262;111220;-71
2023/12/27 02:58:31;;;;;;;3.40;1.10;;;;;;;4.54;73.53;99692.64;102481;1267;137515;-71
2023/12/27 03:00:58;;;;;;;4.40;0.90;;;;;;;4.52;73.55;99699.05;102667;1262;98078;-72
2023/12/27 03:03:24;;;;;;;2.70;0.80;;;;;;;4.50;73.58;99700.81;102627;1267;106971;-72
2023/12/27 03:05:51;;;;;;;1.90;0.90;;;;;;;4.52;73.72;99703.37;102379;1267;138591;-72
2023/12/27 03:08:18;;;;;;;2.50;1.10;;;;;;;4.53;73.73;99704.02;102588;1265;110810;-71
2023/12/27 03:10:45;;;;;;;4.80;1.10;;;;;;;4.52;73.74;99703.19;102511;1262;138946;-72
2023/12/27 03:13:12;;;;;;;3.80;1.20;;;;;;;4.51;73.87;99698.73;102592;1267;97836;-72
2023/12/27 03:15:38;;;;;;;3.90;1.10;;;;;;;4.45;73.93;99700.36;101848;1262;1003044;-69
2023/12/27 03:18:05;;;;;;;4.30;1.10;;;;;;;4.39;74.07;99696.86;102558;1267;97891;-71
2023/12/27 03:20:33;;;;;;;3.40;1.20;;;;;;;4.33;74.24;99697.48;102558;1264;111151;-72
2023/12/27 03:22:59;;;;;;;3.30;1.20;;;;;;;4.23;74.49;99698.13;102298;1269;137421;-70
2023/12/27 03:25:26;;;;;;;1.90;0.90;;;;;;;4.16;74.67;99706.67;102558;1263;97909;-71
2023/12/27 03:27:53;;;;;;;2.70;1.00;;;;;;;4.11;74.83;99708.61;102435;1264;139330;-70
2023/12/27 03:30:21;;;;;;;4.40;1.20;;;;;;;4.08;74.79;99712.62;102634;1264;97923;-71
2023/12/27 03:32:48;;;;;;;3.80;1.30;;;;;;;4.04;74.67;99717.16;102615;1263;110574;-72
2023/12/27 03:35:15;;;;;;;4.40;1.40;;;;;;;4.01;74.79;99729.94;102525;1262;137928;-70
2023/12/27 03:37:44;;;;;;;3.60;1.70;;;;;;;3.98;74.91;99735.67;102674;1262;97828;-71
2023/12/27 03:40:13;;;;;;;5.50;1.60;;;;;;;3.93;74.82;99725.73;101713;1266;1003317;-72
2023/12/27 03:42:39;;;;;;;4.70;1.90;;;;;;;3.88;74.97;99730.11;102666;1264;97813;-70
2023/12/27 03:45:08;;;;;;;4.40;1.90;;;;;;;3.87;75.28;99731.50;102632;1267;111960;-72
2023/12/27 03:47:34;;;;;;;5.50;1.60;;;;;;;3.82;75.54;99734.15;102468;1267;138173;-71
2023/12/27 03:50:02;;;;;;;5.90;1.70;;;;;;;3.79;75.76;99741.08;102648;1267;97816;-71
2023/12/27 03:52:29;;;;;;;8.10;1.60;;;;;;;3.75;75.95;99745.92;102566;1262;138051;-71
2023/12/27 03:54:57;;;;;;;3.50;1.40;;;;;;;3.72;76.41;99753.53;102615;1266;97798;-71
2023/12/27 03:57:24;;;;;;;4.40;1.20;;;;;;;3.69;76.44;99751.69;102630;1263;110898;-70
2023/12/27 03:59:51;;;;;;;3.60;1.20;;;;;;;3.65;76.95;99756.20;102519;1267;138067;-71
2023/12/27 04:02:18;;;;;;;2.60;0.90;;;;;;;3.61;76.89;99761.58;102548;1263;97772;-72
2023/12/27 04:04:46;;;;;;;2.80;1.00;;;;;;;3.57;77.46;99760.39;102477;1262;138059;-71
2023/12/27 04:07:13;;;;;;;3.20;1.00;;;;;;;3.56;77.50;99767.11;102923;1264;96299;-70
2023/12/27 04:09:42;;;;;;;4.70;1.10;;;;;;;3.55;77.77;99758.88;102515;1267;110970;-70
2023/12/27 04:12:10;;;;;;;5.20;1.10;;;;;;;3.54;77.93;99758.38;102560;1264;107235;-74
2023/12/27 04:14:36;;;;;;;4.50;1.00;;;;;;;3.52;77.91;99761.14;102524;1269;98337;-72
2023/12/27 04:17:03;;;;;;;5.70;1.30;;;;;;;3.49;77.85;99775.13;101787;1262;1002678;-72
2023/12/27 04:19:30;;;;;;;4.90;1.10;;;;;;;3.45;78.14;99786.16;102635;1262;97858;-72
2023/12/27 04:21:57;;;;;;;3.90;0.80;;;;;;;3.43;78.52;99789.13;102509;1262;140234;-72
2023/12/27 04:24:24;;;;;;;4.60;1.10;;;;;;;3.44;78.77;99787.04;102494;1268;107581;-73
2023/12/27 04:26:51;;;;;;;2.60;0.80;;;;;;;3.45;78.95;99787.72;102597;1262;97745;-71
2023/12/27 04:29:18;;;;;;;2.90;1.00;;;;;;;3.49;78.90;99791.96;102415;1269;137938;-71
2023/12/27 04:31:44;;;;;;;3.20;1.00;;;;;;;3.54;78.85;99795.34;102693;1262;97716;-71
2023/12/27 04:34:12;;;;;;;4.00;1.00;;;;;;;3.56;78.79;99793.60;101743;1262;1003498;-71
2023/12/27 04:36:39;;;;;;;5.70;1.10;;;;;;;3.60;78.67;99803.53;102490;1264;107317;-72
2023/12/27 04:39:06;;;;;;;5.10;1.30;;;;;;;3.64;78.58;99800.39;102624;1263;97186;-73
2023/12/27 04:41:33;;;;;;;6.60;1.40;;;;;;;3.68;78.52;99811.52;102405;1264;138558;-72
2023/12/27 04:44:00;;;;;;;5.30;1.20;;;;;;;3.70;78.49;99814.24;102661;1268;97807;-71
2023/12/27 04:46:27;;;;;;;4.70;1.10;;;;;;;3.69;78.57;99818.56;102502;1262;137119;-70
2023/12/27 04:48:54;;;;;;;4.00;1.20;;;;;;;3.71;78.42;99819.23;102577;1267;110411;-71
2023/12/27 04:51:21;;;;;;;3.50;1.10;;;;;;;3.74;78.38;99826.05;102574;1265;98066;-71
2023/12/27 04:53:49;;;;;;;4.30;1.50;;;;;;;3.79;78.27;99827.73;102555;1262;138919;-72
2023/12/27 04:56:18;;;;;;;4.40;1.40;;;;;;;3.83;78.33;99832.34;102541;1262;97840;-70
2023/12/27 04:58:45;;;;;;;4.50;1.80;;;;;;;3.87;78.21;99832.45;102424;1270;137580;-71
2023/12/27 05:01:11;;;;;;;4.60;1.20;;;;;;;3.91;78.05;99831.20;102628;1262;109021;-71
2023/12/27 05:03:38;;;;;;;5.80;1.50;;;;;;;3.91;77.90;99841.17;102731;1262;97913;-72
2023/12/27 05:06:08;;;;;;;6.00;1.70;;;;;;;3.91;77.93;99837.04;102455;1264;107855;-71
2023/12/27 05:08:36;;;;;;;5.90;1.30;;;;;;;3.87;77.88;99830.73;102674;1270;97862;-71
2023/12/27 05:11:02;;;;;;;5.70;1.30;;;;;;;3.85;78.07;99831.44;102597;1262;137840;-71
2023/12/27 05:13:30;;;;;;;5.00;1.20;;;;;;;3.84;78.20;99842.64;102555;1262;107845;-71
2023/12/27 05:15:56;;;;;;;2.60;1.00;;;;;;;3.85;78.29;99848.98;102604;1262;138331;-72
2023/12/27 05:18:23;;;;;;;3.20;1.20;;;;;;;3.90;78.16;99848.58;102631;1262;107170;-71
2023/12/27 05:20:50;;;;;;;5.00;1.10;;;;;;;3.94;78.27;99861.77;102610;1267;97819;-73
2023/12/27 05:23:17;;;;;;;6.20;1.40;;;;;;;3.97;78.19;99859.17;102547;1266;138197;-71
2023/12/27 05:25:44;;;;;;;5.50;1.40;;;;;;;3.98;78.11;99863.98;102658;1266;106704;-72
2023/12/27 05:28:10;;;;;;;5.40;1.40;;;;;;;3.98;78.22;99871.91;102559;1262;137460;-73
2023/12/27 05:30:37;;;;;;;4.50;1.40;;;;;;;3.97;78.13;99872.42;102566;1262;106048;-72
2023/12/27 05:33:05;;;;;;;3.30;1.10;;;;;;;3.95;78.47;99879.14;102539;1267;97820;-69
2023/12/27 05:35:32;;;;;;;4.20;1.40;;;;;;;3.92;78.48;99879.34;102522;1266;139124;-69
2023/12/27 05:38:00;;;;;;;4.30;1.20;;;;;;;3.92;78.24;99873.84;102579;1262;107713;-72
2023/12/27 05:40:26;;;;;;;5.50;1.50;;;;;;;3.91;78.25;99885.72;102472;1265;138157;-72
2023/12/27 05:42:53;;;;;;;8.50;1.70;;;;;;;3.95;78.54;99887.40;102576;1265;108727;-69
2023/12/27 05:45:20;;;;;;;5.20;1.40;;;;;;;3.98;78.40;99890.30;102600;1264;97830;-70
2023/12/27 05:47:48;;;;;;;4.20;1.40;;;;;;;3.97;78.51;99893.58;102463;1266;137180;-69
2023/12/27 05:50:15;;;;;;;7.80;1.70;;;;;;;4.02;78.16;99911.41;102530;1268;106823;-73
2023/12/27 05:52:41;;;;;;;3.60;1.60;;;;;;;4.02;78.37;99912.27;102480;1263;138380;-68
2023/12/27 05:55:10;;;;;;;8.50;1.80;;;;;;;4.02;78.16;99911.42;102700;1268;108497;-71
2023/12/27 05:57:37;;;;;;;5.90;1.70;;;;;;;4.00;78.29;99928.81;102712;1265;98019;-72
2023/12/27 06:00:04;;;;;;;6.90;1.50;;;;;;;3.98;78.27;99945.00;102575;1268;138699;-71
2023/12/27 06:02:37;;;;;;;5.70;1.70;;;;;;;4.00;78.31;99943.61;102652;1262;107134;-72
2023/12/27 06:05:05;;;;;;;5.80;1.40;;;;;;;4.00;78.29;99944.80;102542;1266;136945;-72
2023/12/27 06:07:32;;;;;;;5.00;1.80;;;;;;;4.02;78.23;99946.86;102611;1263;107818;-71
2023/12/27 06:09:59;;;;;;;3.50;1.50;;;;;;;4.04;78.22;99948.20;102407;1268;138551;-72
2023/12/27 06:12:27;;;;;;;5.20;1.60;;;;;;;4.07;78.14;99944.55;102521;1267;111092;-71
2023/12/27 06:14:54;;;;;;;7.80;1.90;;;;;;;4.07;78.02;99944.72;102532;1267;106995;-71
2023/12/27 06:17:21;;;;;;;7.40;1.80;;;;;;;4.04;77.89;99954.90;102519;1266;137878;-71
2023/12/27 06:19:48;;;;;;;9.40;2.00;;;;;;;4.00;77.78;99949.97;102612;1265;107721;-74
2023/12/27 06:22:15;;;;;;;4.60;1.60;;;;;;;3.95;77.87;99953.47;102471;1265;137704;-72
2023/12/27 06:24:43;;;;;;;7.20;1.80;;;;;;;3.95;78.03;99956.04;102535;1262;111279;-72
2023/12/27 06:27:13;;;;;;;7.20;1.90;;;;;;;3.93;78.06;99961.72;102502;1267;105868;-73
2023/12/27 06:29:41;;;;;;;5.90;1.70;;;;;;;3.91;78.06;99966.22;102525;1262;138680;-74
2023/12/27 06:32:09;;;;;;;4.30;1.70;;;;;;;3.92;78.20;99976.70;102633;1267;107714;-74
2023/12/27 06:34:36;;;;;;;6.40;2.20;;;;;;;3.90;78.21;99985.49;102634;1268;137816;-71
2023/12/27 06:37:03;;;;;;;6.50;1.80;;;;;;;3.88;78.29;99987.40;102711;1267;110983;-72
2023/12/27 06:39:30;;;;;;;9.80;2.00;;;;;;;3.87;78.41;99991.89;102631;1265;107030;-70
2023/12/27 06:41:57;;;;;;;6.30;1.90;;;;;;;3.83;78.42;99994.85;102491;1262;137249;-74
2023/12/27 06:44:24;;;;;;;7.10;1.50;;;;;;;3.76;78.55;99997.83;102485;1263;107645;-74
2023/12/27 06:46:51;;;;;;;5.40;1.50;;;;;;;3.71;78.57;100008.02;102551;1262;139180;-72
2023/12/27 06:49:18;;;;;;;5.80;1.60;;;;;;;3.66;78.64;100018.03;102693;1267;111441;-72
2023/12/27 06:51:45;;;;;;;5.00;1.70;;;;;;;3.62;78.90;100021.50;102523;1267;138741;-70
2023/12/27 06:54:12;;;;;;;4.10;1.80;;;;;;;3.63;78.94;100031.13;102631;1268;98382;-72
2023/12/27 06:56:39;;;;;;;4.70;1.80;;;;;;;3.64;78.76;100028.89;102630;1266;108904;-73
2023/12/27 06:59:06;;;;;;;5.90;1.80;;;;;;;3.63;78.99;100029.05;102574;1264;137672;-72
2023/12/27 07:01:33;;;;;;;7.10;2.00;;;;;;;3.62;79.14;100030.61;102632;1262;111865;-73
2023/12/27 07:04:02;;;;;;;7.10;2.30;;;;;;;3.58;78.85;100032.52;102489;1262;137763;-72
2023/12/27 07:06:29;;;;;;;8.70;2.10;;;;;;;3.54;78.93;100045.27;102601;1262;97849;-73
2023/12/27 07:08:56;;;;;;;8.60;2.00;;;;;;;3.49;79.02;100044.45;102600;1262;107375;-73
2023/12/27 07:11:24;;;;;;;4.80;1.70;;;;;;;3.42;79.12;100045.02;102412;1270;138341;-72
2023/12/27 07:13:52;;;;;;;5.50;2.10;;;;;;;3.41;79.10;100055.50;104043;1265;111408;-77
2023/12/27 07:16:18;;;;;;;6.60;2.20;;;;;;;3.42;79.07;100068.21;102608;1262;138346;-73
2023/12/27 07:18:46;;;;;;;4.80;1.70;;;;;;;3.49;79.16;100072.30;102594;1263;98361;-72
2023/12/27 07:21:14;;;;;;;6.90;1.80;;;;;;;3.64;79.14;100079.25;102620;1262;107937;-72
2023/12/27 07:23:41;;;;;;;5.70;1.60;;;;;;;3.81;78.92;100083.42;102507;1267;138084;-73
2023/12/27 07:26:13;;;;;;;7.00;2.30;;;;;;;4.01;78.37;100092.40;102640;1267;112784;-73
2023/12/27 07:28:40;;;;;;;10.00;2.00;;;;;;;4.25;78.14;100102.35;103251;1265;138144;-73
2023/12/27 07:31:07;;;;;;;5.30;2.20;;;;;;;4.46;77.61;100109.04;102679;1262;98502;-73
2023/12/27 07:33:38;;;;;;;5.20;2.10;;;;;;;4.62;76.87;100109.39;102636;1265;108199;-73
2023/12/27 07:36:08;;;;;;;9.20;2.50;;;;;;;4.74;76.21;100120.65;102734;1262;97831;-72
2023/12/27 07:38:35;;;;;;;6.60;2.30;;;;;;;4.74;75.51;100129.60;102611;1268;111418;-73
2023/12/27 07:41:04;;;;;;;9.80;2.00;;;;;;;4.70;75.25;100135.85;102527;1267;137549;-72
2023/12/27 07:43:31;;;;;;;6.60;2.50;;;;;;;4.64;74.94;100141.23;101916;1267;1003088;-69
2023/12/27 07:45:58;;;;;;;6.40;2.40;;;;;;;4.56;75.17;100148.89;102483;1263;138015;-73
2023/12/27 07:48:25;;;;;;;10.10;2.20;;;;;;;4.49;75.02;100140.52;102590;1267;97695;-74
2023/12/27 07:50:52;;;;;;;7.40;2.00;;;;;;;4.45;75.22;100149.49;102612;1265;111376;-71
2023/12/27 07:53:19;;;;;;;7.50;2.20;;;;;;;4.41;75.38;100149.89;102458;1268;137241;-73
2023/12/27 07:55:46;;;;;;;6.80;2.50;;;;;;;4.39;75.63;100162.13;102651;1265;97825;-74
2023/12/27 07:58:13;;;;;;;6.70;2.10;;;;;;;4.37;75.68;100158.02;102597;1268;138796;-70
2023/12/27 08:00:40;;;;;;;7.40;2.30;;;;;;;4.34;75.96;100169.40;102663;1262;97804;-74
2023/12/27 08:03:08;;;;;;;10.20;2.50;;;;;;;4.29;76.02;100164.96;102708;1266;112357;-73
2023/12/27 08:05:36;;;;;;;7.90;2.00;;;;;;;4.25;76.25;100170.84;102551;1264;137985;-74
2023/12/27 08:08:04;;;;;;;8.40;2.20;;;;;;;4.20;76.80;100182.58;102673;1266;98446;-76
2023/12/27 08:10:31;;;;;;;6.90;2.20;;;;;;;4.16;76.80;100185.71;102531;1263;138161;-75
2023/12/27 08:12:59;;;;;;;4.60;1.90;;;;;;;4.10;77.20;100191.25;102643;1266;97701;-76
2023/12/27 08:15:27;;;;;;;6.90;2.30;;;;;;;4.12;77.40;100199.48;102538;1268;111985;-76
2023/12/27 08:17:54;;;;;;;6.90;2.30;;;;;;;4.09;77.32;100200.71;102490;1264;139222;-75
2023/12/27 08:20:21;;;;;;;6.70;2.00;;;;;;;4.08;77.43;100213.63;102602;1265;97955;-73
2023/12/27 08:22:51;;;;;;;7.50;1.80;;;;;;;4.12;77.87;100219.45;102355;1262;138643;-70
2023/12/27 08:25:18;;;;;;;7.90;2.50;;;;;;;4.17;77.82;100217.38;102595;1263;97715;-70
2023/12/27 08:27:45;;;;;;;7.50;2.00;;;;;;;4.22;77.64;100224.91;102640;1264;110728;-71
2023/12/27 08:30:13;;;;;;;6.80;2.00;;;;;;;4.25;77.64;100228.48;102629;1262;107290;-71
2023/12/27 08:32:41;;;;;;;7.10;2.00;;;;;;;4.26;77.40;100240.19;102993;1262;97693;-71
2023/12/27 08:35:10;;;;;;;10.10;2.80;;;;;;;4.27;77.31;100240.52;101907;1262;1003154;-71
2023/12/27 08:37:37;;;;;;;11.80;2.40;;;;;;;4.26;77.40;100247.23;104032;1265;96501;-71
2023/12/27 08:40:05;;;;;;;10.50;2.60;;;;;;;4.27;77.34;100257.05;102699;1264;137663;-70
2023/12/27 08:42:31;;;;;;;10.00;2.80;;;;;;;4.23;77.41;100255.02;104087;1262;109342;-70
2023/12/27 08:44:58;;;;;;;7.30;2.70;;;;;;;4.18;77.57;100265.88;104107;1262;96189;-72
2023/12/27 08:47:25;;;;;;;7.30;2.60;;;;;;;4.21;77.42;100277.41;102615;1268;138139;-70
2023/12/27 08:49:55;;;;;;;7.40;2.60;;;;;;;4.16;77.58;100274.52;102896;1266;97905;-71
2023/12/27 08:52:22;;;;;;;7.00;2.60;;;;;;;4.16;77.65;100276.23;102497;1268;138314;-70
2023/12/27 08:54:50;;;;;;;10.20;2.20;;;;;;;4.16;77.81;100284.67;102650;1263;108636;-71
2023/12/27 08:57:17;;;;;;;9.60;2.30;;;;;;;4.19;77.59;100288.44;102747;1262;97838;-72
2023/12/27 08:59:44;;;;;;;7.70;2.60;;;;;;;4.22;77.67;100297.36;102577;1262;137843;-72
2023/12/27 09:02:10;;;;;;;7.80;2.50;;;;;;;4.24;77.80;100300.77;102717;1265;97803;-71
2023/12/27 09:04:37;;;;;;;8.00;2.40;;;;;;;4.27;77.69;100304.55;102550;1266;138229;-71
2023/12/27 09:07:05;;;;;;;8.70;2.60;;;;;;;4.28;77.63;100305.41;102860;1266;108508;-72
2023/12/27 09:09:32;;;;;;;10.80;3.10;;;;;;;4.27;77.85;100307.30;102732;1267;97684;-71
2023/12/27 09:11:59;;;;;;;8.60;2.90;;;;;;;4.28;77.91;100310.74;103067;1263;137426;-70
2023/12/27 09:14:26;;;;;;;8.80;3.20;;;;;;;4.28;77.84;100312.46;102657;1264;97848;-71
2023/12/27 09:16:53;;;;;;;7.00;2.20;;;;;;;4.29;77.75;100322.10;102553;1266;138145;-71
2023/12/27 09:19:20;;;;;;;6.70;2.40;;;;;;;4.30;77.73;100327.26;102639;1262;107197;-72
2023/12/27 09:21:47;;;;;;;10.00;2.50;;;;;;;4.31;77.82;100324.33;102577;1265;138442;-71
2023/12/27 09:24:15;;;;;;;10.00;2.90;;;;;;;4.33;77.98;100322.45;102691;1262;108165;-72
2023/12/27 09:26:42;;;;;;;6.30;2.50;;;;;;;4.38;77.93;100325.33;102622;1265;97687;-70
2023/12/27 09:29:10;;;;;;;10.30;2.50;;;;;;;4.45;78.11;100319.59;102589;1264;138965;-70
2023/12/27 09:31:37;;;;;;;12.10;3.10;;;;;;;4.51;77.90;100314.41;102679;1264;108533;-71
2023/12/27 09:34:05;;;;;;;8.20;3.30;;;;;;;4.55;77.48;100329.53;102565;1267;137975;-69
2023/12/27 09:36:32;;;;;;;10.90;3.00;;;;;;;4.58;77.70;100334.34;104067;1263;107712;-71
2023/12/27 09:38:59;;;;;;;10.00;3.50;;;;;;;4.63;77.65;100326.20;103866;1262;96471;-70
2023/12/27 09:41:27;;;;;;;9.50;3.10;;;;;;;4.73;77.79;100323.55;102858;1268;138019;-70
2023/12/27 09:43:56;;;;;;;10.20;3.00;;;;;;;4.84;77.60;100330.88;102733;1267;108596;-73
2023/12/27 09:46:24;;;;;;;11.70;3.50;;;;;;;4.97;77.07;100333.36;102653;1262;138690;-72
2023/12/27 09:48:52;;;;;;;10.50;3.30;;;;;;;5.07;77.01;100332.60;102950;1262;107967;-70
2023/12/27 09:51:23;;;;;;;9.10;3.00;;;;;;;5.12;76.74;100332.71;102721;1262;97899;-71
2023/12/27 09:53:50;;;;;;;9.70;3.10;;;;;;;5.16;76.48;100340.43;102773;1266;138353;-72
2023/12/27 09:56:19;;;;;;;9.20;3.20;;;;;;;5.22;76.06;100336.08;102569;1265;107271;-70
2023/12/27 09:58:49;;;;;;;9.00;3.30;;;;;;;5.26;75.79;100331.05;102672;1262;138402;-71
2023/12/27 10:01:17;;;;;;;10.60;3.20;;;;;;;5.26;75.74;100327.94;104111;1262;107218;-72
2023/12/27 10:03:48;;;;;;;9.90;3.20;;;;;;;5.29;75.64;100329.12;103125;1264;97678;-70
2023/12/27 10:06:21;;;;;;;10.60;3.40;;;;;;;5.29;75.57;100322.91;102866;1266;110229;-70
2023/12/27 10:08:49;;;;;;;10.30;2.90;;;;;;;5.36;75.40;100336.96;102721;1262;108170;-71
2023/12/27 10:11:18;;;;;;;12.10;3.70;;;;;;;5.37;75.24;100338.51;102655;1266;137776;-71
2023/12/27 10:13:46;;;;;;;13.30;3.60;;;;;;;5.37;75.22;100340.23;102832;1266;107743;-71
2023/12/27 10:16:14;;;;;;;11.70;3.90;;;;;;;5.35;75.11;100345.25;102600;1263;138777;-70
2023/12/27 10:18:41;;;;;;;10.80;3.50;;;;;;;5.35;75.25;100349.57;102668;1264;113151;-70
2023/12/27 10:21:08;;;;;;;8.30;3.10;;;;;;;5.35;75.14;100349.05;102699;1263;108315;-71
2023/12/27 10:23:36;;;;;;;9.50;3.40;;;;;;;5.38;75.06;100350.41;102619;1265;140376;-71
2023/12/27 10:26:04;;;;;;;11.20;3.20;;;;;;;5.39;74.86;100347.82;102750;1266;108374;-69
2023/12/27 10:28:32;;;;;;;7.20;2.90;;;;;;;5.38;75.02;100346.63;102657;1264;138900;-69
2023/12/27 10:30:59;;;;;;;8.30;2.80;;;;;;;5.39;74.83;100347.99;102733;1264;111571;-70
2023/12/27 10:33:26;;;;;;;9.80;3.00;;;;;;;5.41;74.95;100349.54;102993;1267;108207;-72
2023/12/27 10:35:57;;;;;;;9.90;3.40;;;;;;;5.44;74.72;100351.91;103161;1266;138201;-70
2023/12/27 10:38:24;;;;;;;9.90;3.30;;;;;;;5.46;74.47;100349.14;102720;1266;107304;-69
2023/12/27 10:40:52;;;;;;;9.00;3.20;;;;;;;5.50;74.67;100356.34;102641;1264;138378;-71
2023/12/27 10:43:24;;;;;;;15.30;3.40;;;;;;;5.51;74.36;100363.05;102999;1266;111381;-70
2023/12/27 10:45:50;;;;;;;11.10;3.70;;;;;;;5.52;74.48;100362.17;102597;1266;107457;-71
2023/12/27 10:48:19;;;;;;;8.90;3.10;;;;;;;5.58;74.29;100362.47;102708;1265;97817;-70
2023/12/27 10:50:46;;;;;;;11.80;3.10;;;;;;;5.62;73.67;100362.77;102668;1264;108308;-70
2023/12/27 10:53:20;;;;;;;7.80;2.80;;;;;;;5.65;73.52;100365.34;103014;1266;137863;-70
2023/12/27 10:55:50;;;;;;;12.70;3.50;;;;;;;5.65;72.90;100367.06;102721;1268;111338;-70
2023/12/27 10:58:21;;;;;;;9.90;3.40;;;;;;;5.62;73.03;100364.84;102493;1264;137854;-70
2023/12/27 11:00:49;;;;;;;12.80;3.50;;;;;;;5.57;73.19;100362.48;102637;1266;97703;-72
2023/12/27 11:03:17;;;;;;;12.20;3.70;;;;;;;5.54;73.47;100360.09;102634;1264;107904;-71
2023/12/27 11:05:45;;;;;;;13.50;3.40;;;;;;;5.50;73.16;100364.78;102543;1268;139167;-70
2023/12/27 11:08:15;;;;;;;10.90;2.80;;;;;;;5.47;73.48;100365.16;103116;1264;112584;-71
2023/12/27 11:10:44;;;;;;;8.70;2.90;;;;;;;5.46;73.27;100376.39;102504;1267;139365;-72
2023/12/27 11:13:12;;;;;;;8.70;2.50;;;;;;;5.44;73.02;100374.67;102893;1264;97888;-70
2023/12/27 11:15:44;;;;;;;8.60;2.70;;;;;;;5.46;73.01;100377.41;102836;1264;107491;-72
2023/12/27 11:18:13;;;;;;;11.90;2.90;;;;;;;5.49;72.56;100371.17;102553;1266;138670;-71
2023/12/27 11:20:42;;;;;;;10.30;3.00;;;;;;;5.51;72.59;100382.19;102665;1264;111100;-72
2023/12/27 11:23:10;;;;;;;12.50;3.20;;;;;;;5.52;72.41;100388.56;102433;1266;137975;-70
2023/12/27 11:25:37;;;;;;;16.90;3.70;;;;;;;5.53;72.82;100392.01;102615;1268;97815;-70
2023/12/27 11:28:04;;;;;;;12.30;3.40;;;;;;;5.56;72.81;100390.77;102506;1266;137675;-72